Time;durP1;ratioP1;P1;durP2;ratioP2;P2;SDS_P1;SDS_P2;PMS_P1;PMS_P2;Temp;Humidity;BMP_temperature;BMP_pressure;BME280_temperature;BME280_humidity;BME280_pressure;Samples;Min_cycle;Max_cycle;Signal;HPM_P1;HPM_P2
2023/03/15 00:01:14;;;;;;;0.90;0.50;;;4.00;99.90;;;;;;5089500;28;20422;-47
2023/03/15 00:03:42;;;;;;;1.40;0.60;;;4.20;99.90;;;;;;5086084;28;20464;-48
2023/03/15 00:06:09;;;;;;;1.10;0.60;;;4.10;99.90;;;;;;5094422;28;20436;-48
2023/03/15 00:08:37;;;;;;;1.30;0.60;;;4.20;99.90;;;;;;5095364;28;20444;-52
2023/03/15 00:11:06;;;;;;;1.27;0.60;;;4.10;99.90;;;;;;5096085;28;20417;-52
2023/03/15 00:13:34;;;;;;;1.25;0.70;;;4.00;99.90;;;;;;5095995;28;20650;-49
2023/03/15 00:16:02;;;;;;;1.85;0.75;;;3.90;99.90;;;;;;5094702;28;20414;-47
2023/03/15 00:18:30;;;;;;;1.20;0.60;;;3.90;99.90;;;;;;5095535;28;20426;-48
2023/03/15 00:20:58;;;;;;;1.40;0.70;;;4.00;99.90;;;;;;5094569;28;20845;-53
2023/03/15 00:23:25;;;;;;;1.33;0.60;;;4.10;99.90;;;;;;5095942;28;20524;-54
2023/03/15 00:25:53;;;;;;;1.30;0.70;;;4.20;99.90;;;;;;5095828;28;20853;-52
2023/03/15 00:28:22;;;;;;;1.42;0.80;;;4.20;99.90;;;;;;5095622;28;20739;-55
2023/03/15 00:30:49;;;;;;;1.60;0.70;;;4.20;99.90;;;;;;5094165;28;20429;-53
2023/03/15 00:33:16;;;;;;;1.00;0.60;;;4.40;99.90;;;;;;5095299;28;20833;-54
2023/03/15 00:35:45;;;;;;;1.30;0.70;;;4.40;99.90;;;;;;5094022;28;20414;-55
2023/03/15 00:38:13;;;;;;;1.60;0.70;;;4.40;99.90;;;;;;5096176;28;20425;-55
2023/03/15 00:40:40;;;;;;;1.10;0.60;;;4.40;99.90;;;;;;5095105;28;20448;-52
2023/03/15 00:43:07;;;;;;;1.65;0.70;;;4.30;99.90;;;;;;5095570;28;20426;-52
2023/03/15 00:45:36;;;;;;;1.80;0.70;;;4.20;99.90;;;;;;5094792;28;20433;-53
2023/03/15 00:48:04;;;;;;;2.20;0.70;;;4.30;99.90;;;;;;5088224;28;20517;-49
2023/03/15 00:50:31;;;;;;;1.10;0.70;;;4.10;99.90;;;;;;5078497;28;20736;-51
2023/03/15 00:52:58;;;;;;;1.70;0.70;;;4.10;99.90;;;;;;5074754;28;20822;-51
2023/03/15 00:55:25;;;;;;;1.30;0.70;;;4.20;99.90;;;;;;5074125;28;20422;-50
2023/03/15 00:57:52;;;;;;;1.23;0.60;;;4.10;99.90;;;;;;5074270;28;20419;-54
2023/03/15 01:00:23;;;;;;;3.85;0.80;;;3.90;99.90;;;;;;5075184;28;20420;-49
2023/03/15 01:02:52;;;;;;;1.60;0.60;;;3.70;99.90;;;;;;5074969;28;20924;-51
2023/03/15 01:05:19;;;;;;;1.80;0.60;;;3.60;99.90;;;;;;5075117;28;20441;-52
2023/03/15 01:07:47;;;;;;;1.02;0.60;;;3.50;99.90;;;;;;5075057;28;20742;-55
2023/03/15 01:10:15;;;;;;;1.50;0.80;;;3.40;99.90;;;;;;5086689;28;20418;-54
2023/03/15 01:12:42;;;;;;;2.03;0.60;;;3.50;99.90;;;;;;5093872;28;20436;-52
2023/03/15 01:15:13;;;;;;;2.50;0.50;;;3.50;99.90;;;;;;5093949;28;20418;-54
2023/03/15 01:17:41;;;;;;;1.20;0.60;;;3.50;99.90;;;;;;5093492;28;20430;-54
2023/03/15 01:20:11;;;;;;;1.73;0.70;;;3.50;99.90;;;;;;5094174;28;20422;-52
2023/03/15 01:22:39;;;;;;;2.42;0.50;;;3.50;99.90;;;;;;5094755;28;20414;-52
2023/03/15 01:25:08;;;;;;;1.30;0.50;;;3.50;99.90;;;;;;5093980;28;20433;-53
2023/03/15 01:27:35;;;;;;;1.40;0.50;;;3.60;99.90;;;;;;5094825;28;20872;-51
2023/03/15 01:30:02;;;;;;;1.23;0.50;;;3.60;99.90;;;;;;5094792;28;20417;-53
2023/03/15 01:32:29;;;;;;;1.60;0.50;;;3.60;99.90;;;;;;5093415;28;20524;-49
2023/03/15 01:34:57;;;;;;;1.40;0.50;;;3.60;99.90;;;;;;5094710;28;20441;-48
2023/03/15 01:37:26;;;;;;;1.00;0.50;;;3.70;99.90;;;;;;5094690;28;20430;-51
2023/03/15 01:39:53;;;;;;;1.13;0.40;;;3.60;99.90;;;;;;5094700;28;20842;-49
2023/03/15 01:42:20;;;;;;;1.40;0.40;;;3.50;99.90;;;;;;5094378;28;20426;-54
2023/03/15 01:44:56;;;;;;;0.90;0.40;;;3.50;99.90;;;;;;5094823;28;20814;-53
2023/03/15 01:47:25;;;;;;;1.85;0.40;;;3.30;99.90;;;;;;5094416;28;20425;-51
2023/03/15 01:49:58;;;;;;;1.05;0.35;;;3.30;99.90;;;;;;5093459;28;20422;-53
2023/03/15 01:52:32;;;;;;;1.42;0.50;;;3.50;99.90;;;;;;5093604;28;20428;-52
2023/03/15 01:55:04;;;;;;;1.40;0.40;;;3.50;99.90;;;;;;5094030;28;20406;-50
2023/03/15 01:57:36;;;;;;;1.23;0.40;;;3.50;99.90;;;;;;5093342;28;20451;-55
2023/03/15 02:00:10;;;;;;;0.85;0.43;;;3.50;99.90;;;;;;5093472;28;20483;-52
2023/03/15 02:02:45;;;;;;;1.17;0.40;;;3.60;99.90;;;;;;5094328;28;20972;-55
2023/03/15 02:05:15;;;;;;;2.15;0.40;;;3.40;99.90;;;;;;5094281;28;20942;-54
2023/03/15 02:07:48;;;;;;;1.50;0.40;;;3.30;99.90;;;;;;5094632;28;20898;-51
2023/03/15 02:10:18;;;;;;;1.60;0.40;;;3.40;99.90;;;;;;5094516;28;20517;-51
2023/03/15 02:12:50;;;;;;;1.70;0.30;;;3.40;99.90;;;;;;5094563;28;20525;-51
2023/03/15 02:15:18;;;;;;;1.15;0.40;;;3.40;99.90;;;;;;5094594;28;20479;-54
2023/03/15 02:17:47;;;;;;;0.60;0.30;;;3.30;99.90;;;;;;5094205;28;20703;-49
2023/03/15 02:20:26;;;;;;;1.00;0.30;;;3.20;99.90;;;;;;5094308;28;20608;-51
2023/03/15 02:22:57;;;;;;;0.75;0.30;;;3.10;99.90;;;;;;5094257;28;20432;-50
2023/03/15 02:25:39;;;;;;;1.00;0.30;;;3.10;99.90;;;;;;5094300;28;20917;-51
2023/03/15 02:28:10;;;;;;;0.60;0.30;;;3.10;99.90;;;;;;5094284;28;20438;-49
2023/03/15 02:30:37;;;;;;;1.10;0.30;;;3.10;99.90;;;;;;5093572;28;20870;-50
2023/03/15 02:33:08;;;;;;;1.30;0.30;;;3.10;99.90;;;;;;5093992;28;20908;-54
2023/03/15 02:35:35;;;;;;;0.70;0.30;;;3.10;99.90;;;;;;5094359;28;20450;-52
2023/03/15 02:38:02;;;;;;;0.57;0.20;;;3.10;99.90;;;;;;5094493;28;20741;-55
2023/03/15 02:40:31;;;;;;;0.60;0.30;;;3.10;99.90;;;;;;5094087;28;20779;-51
2023/03/15 02:43:03;;;;;;;0.70;0.30;;;3.10;99.90;;;;;;5093854;28;20834;-54
2023/03/15 02:45:33;;;;;;;1.30;0.30;;;3.10;99.90;;;;;;5093085;28;20429;-54
2023/03/15 02:48:01;;;;;;;0.88;0.40;;;3.20;99.90;;;;;;5093216;28;20422;-48
2023/03/15 02:50:29;;;;;;;1.90;0.30;;;3.30;99.90;;;;;;5093290;28;20425;-51
2023/03/15 02:52:56;;;;;;;0.50;0.20;;;3.40;99.90;;;;;;5093313;28;20476;-48
2023/03/15 02:55:23;;;;;;;1.60;0.30;;;3.40;99.90;;;;;;5092228;28;20414;-50
2023/03/15 02:57:51;;;;;;;0.50;0.30;;;3.30;99.90;;;;;;5091349;28;20425;-50
2023/03/15 03:00:18;;;;;;;0.50;0.20;;;3.40;99.90;;;;;;5092311;28;20422;-52
2023/03/15 03:02:49;;;;;;;0.80;0.30;;;3.20;99.90;;;;;;5091763;28;20432;-52
2023/03/15 03:05:17;;;;;;;1.80;0.35;;;3.20;99.90;;;;;;5092534;28;20425;-52
2023/03/15 03:07:44;;;;;;;0.68;0.30;;;3.10;99.90;;;;;;5093863;28;20433;-53
2023/03/15 03:10:13;;;;;;;0.60;0.30;;;3.00;99.90;;;;;;5093621;28;20418;-53
2023/03/15 03:12:40;;;;;;;1.50;0.32;;;2.90;99.90;;;;;;5096951;28;20436;-50
2023/03/15 03:15:08;;;;;;;0.90;0.30;;;2.80;99.90;;;;;;5096441;28;20418;-52
2023/03/15 03:17:36;;;;;;;1.45;0.40;;;2.90;99.90;;;;;;5097052;28;20425;-53
2023/03/15 03:20:06;;;;;;;1.00;0.30;;;2.80;99.90;;;;;;5097060;28;20512;-53
2023/03/15 03:22:34;;;;;;;1.30;0.40;;;2.70;99.90;;;;;;5097068;28;20441;-51
2023/03/15 03:25:01;;;;;;;1.85;0.40;;;2.60;99.90;;;;;;5096295;28;20564;-51
2023/03/15 03:27:28;;;;;;;1.60;0.50;;;2.60;99.90;;;;;;5096133;28;20525;-53
2023/03/15 03:29:56;;;;;;;0.60;0.30;;;2.60;99.90;;;;;;5095475;28;20429;-54
2023/03/15 03:32:23;;;;;;;2.17;0.38;;;2.60;99.90;;;;;;5095431;28;20841;-52
2023/03/15 03:34:50;;;;;;;0.70;0.30;;;2.60;99.90;;;;;;5096122;28;20725;-54
2023/03/15 03:37:20;;;;;;;1.80;0.40;;;2.60;99.90;;;;;;5095512;28;20422;-50
2023/03/15 03:39:47;;;;;;;0.90;0.30;;;2.50;99.90;;;;;;5096359;28;20417;-52
2023/03/15 03:42:14;;;;;;;1.50;0.40;;;2.40;99.90;;;;;;5096392;28;20849;-51
2023/03/15 03:44:42;;;;;;;0.98;0.30;;;2.40;99.90;;;;;;5097112;28;20417;-55
2023/03/15 03:47:09;;;;;;;1.20;0.30;;;2.40;99.90;;;;;;5095617;28;20441;-52
2023/03/15 03:49:36;;;;;;;0.60;0.30;;;2.40;99.90;;;;;;5096355;28;20417;-55
2023/03/15 03:52:03;;;;;;;2.58;0.40;;;2.30;99.90;;;;;;5096241;28;20885;-54
2023/03/15 03:54:32;;;;;;;0.70;0.30;;;2.30;99.90;;;;;;5096585;28;20424;-52
2023/03/15 03:56:59;;;;;;;2.03;0.40;;;2.30;99.90;;;;;;5096488;28;20440;-53
2023/03/15 03:59:26;;;;;;;0.70;0.30;;;2.20;99.90;;;;;;5095875;28;20421;-51
2023/03/15 04:01:54;;;;;;;1.45;0.40;;;2.20;99.90;;;;;;5096681;28;20853;-53
2023/03/15 04:04:21;;;;;;;1.20;0.30;;;2.10;99.90;;;;;;5094978;28;20410;-53
2023/03/15 04:06:49;;;;;;;2.15;0.70;;;2.10;99.90;;;;;;5096255;28;20430;-54
2023/03/15 04:09:17;;;;;;;0.90;0.43;;;2.10;99.90;;;;;;5096620;28;20430;-51
2023/03/15 04:11:45;;;;;;;2.60;0.40;;;2.10;99.90;;;;;;5096457;28;20931;-52
2023/03/15 04:14:14;;;;;;;2.65;0.60;;;2.10;99.90;;;;;;5095843;28;20421;-52
2023/03/15 04:16:41;;;;;;;1.40;0.40;;;2.10;99.90;;;;;;5095248;28;20717;-54
2023/03/15 04:19:11;;;;;;;1.77;0.40;;;2.10;99.90;;;;;;5094968;28;20424;-53
2023/03/15 04:21:38;;;;;;;1.58;0.40;;;2.10;99.90;;;;;;5096213;28;20475;-51
2023/03/15 04:24:06;;;;;;;2.20;0.47;;;2.20;99.90;;;;;;5096426;28;20430;-49
2023/03/15 04:26:33;;;;;;;1.90;0.50;;;2.30;99.90;;;;;;5095706;28;20430;-50
2023/03/15 04:29:03;;;;;;;1.13;0.50;;;2.30;99.90;;;;;;5095627;28;20433;-51
2023/03/15 04:31:36;;;;;;;1.50;0.47;;;2.30;99.90;;;;;;5095002;28;20475;-54
2023/03/15 04:34:04;;;;;;;0.82;0.50;;;2.20;99.90;;;;;;5091728;28;20430;-52
2023/03/15 04:36:31;;;;;;;1.45;0.50;;;2.20;99.90;;;;;;5093692;28;20447;-51
2023/03/15 04:39:04;;;;;;;0.90;0.50;;;2.20;99.90;;;;;;5093348;28;20884;-52
2023/03/15 04:41:33;;;;;;;2.70;0.50;;;2.20;99.90;;;;;;5093235;28;20425;-53
2023/03/15 04:44:02;;;;;;;1.73;0.50;;;2.20;99.90;;;;;;5093405;28;20430;-50
2023/03/15 04:46:30;;;;;;;1.90;0.60;;;2.20;99.90;;;;;;5092085;28;20596;-52
2023/03/15 04:48:57;;;;;;;2.00;0.80;;;2.20;99.90;;;;;;5093583;28;20426;-53
2023/03/15 04:51:24;;;;;;;1.38;0.60;;;2.20;99.90;;;;;;5095401;28;20418;-54
2023/03/15 04:53:51;;;;;;;1.70;0.70;;;2.10;99.90;;;;;;5094321;28;20734;-51
2023/03/15 04:56:19;;;;;;;1.05;0.50;;;2.10;99.90;;;;;;5094831;28;20421;-53
2023/03/15 04:58:46;;;;;;;2.05;0.52;;;2.00;99.90;;;;;;5094927;28;20425;-51
2023/03/15 05:01:14;;;;;;;1.60;0.55;;;2.00;99.90;;;;;;5094713;28;20422;-54
2023/03/15 05:03:42;;;;;;;2.10;0.55;;;1.90;99.90;;;;;;5095072;28;20434;-54
2023/03/15 05:06:09;;;;;;;3.25;0.70;;;1.90;99.90;;;;;;5095023;28;20528;-53
2023/03/15 05:08:36;;;;;;;0.90;0.50;;;1.90;99.90;;;;;;5094721;28;20856;-53
2023/03/15 05:11:04;;;;;;;1.38;0.60;;;1.90;99.90;;;;;;5094703;28;20418;-54
2023/03/15 05:13:31;;;;;;;2.17;0.60;;;1.90;99.90;;;;;;5093342;28;20426;-52
2023/03/15 05:15:58;;;;;;;2.30;0.60;;;1.90;99.90;;;;;;5094725;28;20421;-49
2023/03/15 05:18:27;;;;;;;1.70;0.60;;;2.00;99.90;;;;;;5092970;28;20430;-50
2023/03/15 05:20:55;;;;;;;1.30;0.50;;;2.10;99.90;;;;;;5093992;28;20409;-50
2023/03/15 05:23:23;;;;;;;1.80;0.60;;;2.10;99.90;;;;;;5092396;28;20784;-48
2023/03/15 05:25:53;;;;;;;2.60;0.60;;;2.20;99.90;;;;;;5094167;28;20424;-53
2023/03/15 05:28:21;;;;;;;1.52;0.50;;;2.20;99.90;;;;;;5094580;28;20429;-54
2023/03/15 05:30:48;;;;;;;1.20;0.60;;;2.20;99.90;;;;;;5094278;28;20426;-52
2023/03/15 05:33:15;;;;;;;1.30;0.60;;;2.20;99.90;;;;;;5094263;28;20528;-53
2023/03/15 05:35:44;;;;;;;2.33;0.50;;;2.20;99.90;;;;;;5094162;28;20435;-55
2023/03/15 05:38:13;;;;;;;1.20;0.50;;;2.20;99.90;;;;;;5094923;28;20425;-52
2023/03/15 05:40:41;;;;;;;1.00;0.50;;;2.30;99.90;;;;;;5094423;28;20490;-53
2023/03/15 05:43:08;;;;;;;2.83;0.60;;;2.20;99.90;;;;;;5092100;28;20430;-56
2023/03/15 05:45:35;;;;;;;1.88;0.60;;;2.20;99.90;;;;;;5092309;28;20718;-51
2023/03/15 05:48:03;;;;;;;2.28;0.70;;;2.10;99.90;;;;;;5091734;28;20433;-49
2023/03/15 05:50:30;;;;;;;2.90;0.60;;;2.00;99.90;;;;;;5093876;28;20425;-53
2023/03/15 05:52:59;;;;;;;2.33;1.00;;;2.00;99.90;;;;;;5093029;28;20430;-54
2023/03/15 05:55:26;;;;;;;3.90;0.80;;;1.90;99.90;;;;;;5093111;28;20424;-50
2023/03/15 05:57:53;;;;;;;1.20;0.65;;;1.90;99.90;;;;;;5092522;28;20428;-52
2023/03/15 06:00:21;;;;;;;1.58;0.63;;;1.90;99.90;;;;;;5092584;28;20422;-52
2023/03/15 06:02:48;;;;;;;1.77;0.67;;;1.90;99.90;;;;;;5091985;28;20922;-49
2023/03/15 06:05:15;;;;;;;1.20;0.60;;;1.80;99.90;;;;;;5092854;28;20424;-53
2023/03/15 06:07:43;;;;;;;1.95;0.70;;;1.80;99.90;;;;;;5091390;28;20438;-53
2023/03/15 06:10:12;;;;;;;1.20;0.70;;;1.80;99.90;;;;;;5093279;28;20422;-52
2023/03/15 06:12:40;;;;;;;2.15;0.60;;;1.90;99.90;;;;;;5093365;28;20432;-47
2023/03/15 06:15:08;;;;;;;2.88;0.80;;;1.90;99.90;;;;;;5092041;28;20418;-52
2023/03/15 06:17:35;;;;;;;1.63;0.70;;;1.90;99.90;;;;;;5093539;28;20699;-48
2023/03/15 06:20:03;;;;;;;1.70;0.70;;;1.90;99.90;;;;;;5092398;28;20468;-51
2023/03/15 06:22:31;;;;;;;1.10;0.70;;;2.00;99.90;;;;;;5090738;28;20449;-51
2023/03/15 06:24:58;;;;;;;1.50;0.63;;;2.00;99.90;;;;;;5090261;28;20733;-52
2023/03/15 06:27:26;;;;;;;1.55;0.60;;;2.10;99.90;;;;;;5091159;28;20430;-54
2023/03/15 06:29:54;;;;;;;1.70;0.70;;;2.20;99.90;;;;;;5090386;28;20425;-58
2023/03/15 06:32:22;;;;;;;2.30;0.70;;;2.20;99.90;;;;;;5091530;28;20857;-51
2023/03/15 06:34:49;;;;;;;1.20;0.80;;;2.20;99.90;;;;;;5092114;28;20719;-49
2023/03/15 06:37:16;;;;;;;2.33;0.80;;;2.20;99.90;;;;;;5092612;28;20418;-49
2023/03/15 06:39:43;;;;;;;1.65;0.63;;;2.40;99.90;;;;;;5090270;28;20741;-50
2023/03/15 06:42:12;;;;;;;1.90;0.70;;;2.40;99.90;;;;;;5090114;28;20422;-52
2023/03/15 06:44:42;;;;;;;2.00;0.70;;;2.50;99.90;;;;;;5087749;28;20615;-48
2023/03/15 06:47:10;;;;;;;1.63;0.70;;;2.50;99.90;;;;;;5093570;28;20436;-47
2023/03/15 06:49:37;;;;;;;2.17;0.65;;;2.50;99.90;;;;;;5094818;28;20853;-49
2023/03/15 06:52:05;;;;;;;1.80;0.70;;;2.70;99.90;;;;;;5094375;28;20804;-48
2023/03/15 06:54:32;;;;;;;1.70;0.70;;;2.70;99.90;;;;;;5095013;28;20949;-50
2023/03/15 06:56:59;;;;;;;2.30;0.70;;;2.90;99.90;;;;;;5094763;28;20413;-52
2023/03/15 06:59:27;;;;;;;1.77;0.60;;;3.00;99.90;;;;;;5094730;28;20737;-49
2023/03/15 07:01:55;;;;;;;2.70;0.70;;;3.00;99.90;;;;;;5092975;28;20713;-50
2023/03/15 07:04:22;;;;;;;1.27;0.70;;;2.90;99.90;;;;;;5093855;28;20512;-52
2023/03/15 07:06:49;;;;;;;1.33;0.63;;;2.90;99.90;;;;;;5090143;28;20456;-52
2023/03/15 07:09:17;;;;;;;1.73;0.67;;;3.10;99.90;;;;;;5085994;28;20435;-53
2023/03/15 07:11:44;;;;;;;1.40;0.50;;;3.40;99.90;;;;;;5078205;28;20444;-52
2023/03/15 07:14:11;;;;;;;3.00;0.60;;;3.70;99.90;;;;;;5090746;28;20421;-52
2023/03/15 07:16:38;;;;;;;1.20;0.50;;;3.70;99.90;;;;;;5086681;28;20947;-51
2023/03/15 07:19:07;;;;;;;3.00;0.50;;;3.80;99.90;;;;;;5092553;28;20776;-50
2023/03/15 07:21:34;;;;;;;3.80;0.50;;;3.90;99.90;;;;;;5092213;28;20745;-47
2023/03/15 07:24:01;;;;;;;0.80;0.40;;;3.80;99.90;;;;;;5093948;28;20429;-52
2023/03/15 07:26:28;;;;;;;1.55;0.47;;;3.70;99.90;;;;;;5088417;28;20856;-52
2023/03/15 07:28:55;;;;;;;1.60;0.50;;;3.70;99.90;;;;;;5088130;28;20850;-48
2023/03/15 07:31:23;;;;;;;1.97;0.50;;;3.60;99.90;;;;;;5091686;28;20434;-52
2023/03/15 07:33:50;;;;;;;1.90;0.50;;;3.90;99.90;;;;;;5093203;28;20861;-51
2023/03/15 07:36:18;;;;;;;2.33;0.60;;;3.80;99.90;;;;;;5093297;28;20422;-47
2023/03/15 07:38:45;;;;;;;1.00;0.57;;;3.70;99.90;;;;;;5091528;28;20445;-53
2023/03/15 07:41:12;;;;;;;1.40;0.50;;;3.70;99.90;;;;;;5091285;28;20434;-49
2023/03/15 07:43:40;;;;;;;1.42;0.50;;;3.60;99.90;;;;;;5093481;28;20440;-47
2023/03/15 07:46:07;;;;;;;1.20;0.50;;;4.00;99.90;;;;;;5095326;28;20422;-52
2023/03/15 07:48:34;;;;;;;2.10;0.50;;;3.90;99.90;;;;;;5088980;28;20438;-48
2023/03/15 07:51:01;;;;;;;2.70;0.50;;;3.80;99.90;;;;;;5090172;28;20881;-51
2023/03/15 07:53:29;;;;;;;1.70;0.50;;;3.70;99.90;;;;;;5091569;28;20443;-49
2023/03/15 07:55:57;;;;;;;1.00;0.50;;;3.70;99.90;;;;;;5084703;28;20484;-49
2023/03/15 07:58:24;;;;;;;3.67;0.50;;;3.80;99.90;;;;;;5090716;28;20436;-50
2023/03/15 08:00:54;;;;;;;1.40;0.50;;;3.70;99.90;;;;;;5091736;28;20428;-52
2023/03/15 08:03:21;;;;;;;1.42;0.50;;;3.70;99.90;;;;;;5091230;28;20442;-51
2023/03/15 08:05:48;;;;;;;2.10;0.70;;;3.80;99.90;;;;;;5093687;28;20422;-50
2023/03/15 08:08:15;;;;;;;2.08;0.57;;;3.90;99.90;;;;;;5084992;28;20439;-51
2023/03/15 08:10:44;;;;;;;2.05;0.50;;;4.00;99.90;;;;;;5080954;28;21022;-50
2023/03/15 08:13:11;;;;;;;0.93;0.40;;;3.90;99.90;;;;;;5090908;28;20444;-51
2023/03/15 08:15:40;;;;;;;1.17;0.45;;;3.90;99.90;;;;;;5089875;28;20445;-49
2023/03/15 08:18:07;;;;;;;3.70;0.50;;;4.00;99.90;;;;;;5088774;28;20434;-49
2023/03/15 08:20:34;;;;;;;1.60;0.50;;;4.20;99.90;;;;;;5089862;28;20535;-50
2023/03/15 08:23:01;;;;;;;3.00;0.50;;;4.30;99.90;;;;;;5091841;28;21017;-51
2023/03/15 08:25:29;;;;;;;2.33;0.50;;;4.40;99.90;;;;;;5073371;28;20970;-53
2023/03/15 08:27:58;;;;;;;1.10;0.40;;;4.50;99.90;;;;;;5091893;28;20430;-48
2023/03/15 08:30:25;;;;;;;0.70;0.50;;;4.70;99.90;;;;;;5090366;28;20428;-49
2023/03/15 08:32:53;;;;;;;1.38;1.10;;;4.80;99.90;;;;;;5080761;28;20444;-50
2023/03/15 08:35:21;;;;;;;0.60;0.40;;;4.70;99.90;;;;;;5073080;28;20834;-52
2023/03/15 08:37:49;;;;;;;1.20;0.40;;;4.90;99.90;;;;;;5082813;28;20446;-49
2023/03/15 08:40:18;;;;;;;1.50;0.40;;;5.10;99.90;;;;;;5085880;28;20433;-52
2023/03/15 08:42:45;;;;;;;1.80;0.40;;;5.10;99.90;;;;;;5092580;28;20425;-52
2023/03/15 08:45:14;;;;;;;1.70;0.57;;;5.20;99.90;;;;;;5091227;28;20430;-49
2023/03/15 08:47:42;;;;;;;1.90;0.53;;;5.40;99.90;;;;;;5088254;28;20438;-53
2023/03/15 08:50:12;;;;;;;1.42;0.40;;;5.60;99.90;;;;;;5090664;28;20440;-54
2023/03/15 08:52:39;;;;;;;0.80;0.35;;;5.70;99.90;;;;;;5084466;28;20446;-53
2023/03/15 08:55:07;;;;;;;1.85;0.50;;;5.60;99.90;;;;;;5091429;28;20433;-52
2023/03/15 08:57:35;;;;;;;0.52;0.40;;;5.60;99.90;;;;;;5091408;28;20429;-50
2023/03/15 09:00:06;;;;;;;1.40;0.40;;;5.70;99.90;;;;;;5090663;28;20619;-49
2023/03/15 09:02:35;;;;;;;1.20;0.40;;;5.70;99.90;;;;;;5087900;28;20436;-51
2023/03/15 09:05:05;;;;;;;0.88;0.40;;;5.90;99.90;;;;;;5090857;28;20420;-54
2023/03/15 09:07:33;;;;;;;1.15;0.40;;;6.00;99.90;;;;;;5090073;28;20436;-49
2023/03/15 09:10:00;;;;;;;1.40;0.40;;;6.00;99.90;;;;;;5086036;28;20484;-50
2023/03/15 09:12:27;;;;;;;3.50;0.50;;;6.10;99.90;;;;;;5092064;28;20830;-52
2023/03/15 09:14:54;;;;;;;1.50;0.40;;;6.30;99.90;;;;;;5091436;28;20434;-52
2023/03/15 09:17:22;;;;;;;1.30;0.40;;;6.10;99.90;;;;;;5085122;28;20988;-54
2023/03/15 09:19:51;;;;;;;1.80;0.40;;;5.90;99.90;;;;;;5081224;28;20426;-56
2023/03/15 09:22:18;;;;;;;1.50;0.45;;;5.90;99.90;;;;;;5088985;28;20731;-55
2023/03/15 09:24:45;;;;;;;1.08;0.60;;;6.10;99.90;;;;;;5089258;28;20753;-52
2023/03/15 09:27:12;;;;;;;1.60;0.50;;;6.50;99.90;;;;;;5091624;28;20449;-53
2023/03/15 09:29:39;;;;;;;2.10;0.40;;;6.60;99.90;;;;;;5089010;28;20418;-52
2023/03/15 09:32:07;;;;;;;1.38;0.40;;;6.60;99.90;;;;;;5088126;28;20867;-52
2023/03/15 09:34:36;;;;;;;0.75;0.40;;;6.50;99.90;;;;;;5083784;28;20930;-50
2023/03/15 09:37:04;;;;;;;1.10;0.40;;;6.50;99.90;;;;;;5089966;28;20429;-50
2023/03/15 09:39:32;;;;;;;0.70;0.30;;;6.50;99.90;;;;;;5088954;28;20440;-54
2023/03/15 09:42:03;;;;;;;1.10;0.40;;;6.50;99.90;;;;;;5089861;28;20885;-51
2023/03/15 09:44:42;;;;;;;2.20;0.30;;;6.70;99.90;;;;;;5088941;28;20514;-55
2023/03/15 09:47:22;;;;;;;1.30;0.30;;;6.50;99.90;;;;;;5090646;28;20422;-55
2023/03/15 09:49:54;;;;;;;1.23;0.30;;;6.50;99.90;;;;;;5091181;28;20474;-56
2023/03/15 09:52:38;;;;;;;1.63;0.40;;;6.70;99.90;;;;;;5089090;28;20447;-57
2023/03/15 09:55:12;;;;;;;1.80;0.30;;;6.60;99.90;;;;;;5090862;28;20720;-57
2023/03/15 09:57:44;;;;;;;1.70;0.40;;;6.70;99.90;;;;;;5092373;28;20516;-54
2023/03/15 10:00:15;;;;;;;1.00;0.40;;;6.60;99.90;;;;;;5092078;28;20425;-56
2023/03/15 10:02:52;;;;;;;1.10;0.40;;;6.90;99.90;;;;;;5070750;28;20429;-54
2023/03/15 10:05:22;;;;;;;3.90;0.30;;;7.10;99.90;;;;;;5071692;28;21029;-54
2023/03/15 10:07:51;;;;;;;0.60;0.30;;;7.00;99.90;;;;;;5090152;28;20465;-55
2023/03/15 10:10:21;;;;;;;1.83;0.40;;;6.90;99.90;;;;;;5088854;28;20520;-54
2023/03/15 10:12:55;;;;;;;0.80;0.40;;;6.90;99.90;;;;;;5088534;28;20422;-52
2023/03/15 10:15:32;;;;;;;2.03;0.38;;;7.00;99.90;;;;;;5090662;28;20705;-50
2023/03/15 10:18:14;;;;;;;2.92;0.70;;;7.30;99.90;;;;;;5086850;28;20452;-51
2023/03/15 10:20:46;;;;;;;1.50;0.40;;;7.60;99.90;;;;;;5091619;28;20417;-53
2023/03/15 10:23:19;;;;;;;1.55;0.30;;;7.90;99.90;;;;;;5091880;28;20434;-52
2023/03/15 10:25:49;;;;;;;0.80;0.30;;;7.80;99.90;;;;;;5095207;28;20744;-50
2023/03/15 10:28:24;;;;;;;1.40;0.35;;;7.80;99.90;;;;;;5088032;28;20435;-50
2023/03/15 10:30:52;;;;;;;0.90;0.40;;;7.80;99.90;;;;;;5096310;28;20424;-51
2023/03/15 10:33:26;;;;;;;0.90;0.40;;;7.50;99.90;;;;;;5094534;28;20540;-52
2023/03/15 10:35:54;;;;;;;0.80;0.30;;;7.50;99.90;;;;;;5091980;28;20439;-55
2023/03/15 10:38:23;;;;;;;1.10;0.30;;;7.40;99.90;;;;;;5094903;28;20570;-53
2023/03/15 10:40:53;;;;;;;0.90;0.20;;;7.50;99.90;;;;;;5093990;28;20749;-50
2023/03/15 10:43:22;;;;;;;1.27;0.40;;;7.60;99.90;;;;;;5094955;28;20426;-49
2023/03/15 10:46:01;;;;;;;1.20;0.30;;;7.50;99.90;;;;;;5093740;28;20475;-53
2023/03/15 10:48:30;;;;;;;0.43;0.20;;;7.30;99.90;;;;;;5092349;28;20440;-54
2023/03/15 10:51:01;;;;;;;0.70;0.30;;;7.30;99.90;;;;;;5091974;28;20425;-51
2023/03/15 10:53:29;;;;;;;1.00;0.30;;;7.50;99.90;;;;;;5089747;28;20760;-53
2023/03/15 10:56:01;;;;;;;1.50;0.40;;;7.70;99.90;;;;;;5091778;28;21053;-53
2023/03/15 10:58:38;;;;;;;0.60;0.22;;;8.00;99.90;;;;;;5090911;28;20464;-54
2023/03/15 11:01:08;;;;;;;0.90;0.20;;;8.50;99.90;;;;;;5094013;28;20808;-53
2023/03/15 11:03:36;;;;;;;1.23;0.40;;;8.30;99.90;;;;;;5092238;28;20441;-55
2023/03/15 11:06:20;;;;;;;0.70;0.30;;;8.10;99.90;;;;;;5091418;28;20492;-51
2023/03/15 11:08:48;;;;;;;1.90;0.35;;;8.00;99.90;;;;;;5092135;28;20445;-55
2023/03/15 11:11:16;;;;;;;0.70;0.20;;;8.00;99.90;;;;;;5092359;28;20607;-53
2023/03/15 11:13:54;;;;;;;1.30;0.30;;;7.90;99.90;;;;;;5092630;28;20439;-51
2023/03/15 11:16:22;;;;;;;1.10;0.40;;;8.00;99.90;;;;;;5090667;28;20872;-51
2023/03/15 11:18:52;;;;;;;0.70;0.30;;;8.10;99.90;;;;;;5091845;28;20424;-51
2023/03/15 11:21:22;;;;;;;0.60;0.30;;;8.10;99.90;;;;;;5092039;28;21434;-51
2023/03/15 11:23:52;;;;;;;1.52;0.40;;;8.00;99.90;;;;;;5094667;28;20437;-52
2023/03/15 11:26:21;;;;;;;0.70;0.30;;;8.20;99.90;;;;;;5090185;28;20434;-52
2023/03/15 11:28:52;;;;;;;0.80;0.30;;;8.30;99.90;;;;;;5093616;28;20908;-54
2023/03/15 11:31:21;;;;;;;1.80;0.20;;;8.20;99.90;;;;;;5092550;28;20432;-53
2023/03/15 11:33:53;;;;;;;0.50;0.30;;;8.20;99.90;;;;;;5091296;28;20441;-55
2023/03/15 11:36:23;;;;;;;1.07;0.20;;;8.10;99.90;;;;;;5091762;28;20856;-53
2023/03/15 11:38:53;;;;;;;0.90;0.50;;;8.10;99.90;;;;;;5093381;28;20425;-54
2023/03/15 11:41:31;;;;;;;0.77;0.40;;;8.20;99.90;;;;;;5091327;28;20856;-54
2023/03/15 11:44:10;;;;;;;1.10;0.30;;;8.30;99.90;;;;;;5091518;28;20512;-53
2023/03/15 11:46:41;;;;;;;0.63;0.20;;;8.40;99.90;;;;;;5090799;28;20465;-53
2023/03/15 11:49:17;;;;;;;0.70;0.20;;;8.40;99.90;;;;;;5090630;28;20430;-54
2023/03/15 11:51:44;;;;;;;0.60;0.20;;;8.30;99.90;;;;;;5093221;28;20430;-52
2023/03/15 11:54:15;;;;;;;0.63;0.20;;;8.10;99.90;;;;;;5092155;28;20517;-55
2023/03/15 11:56:51;;;;;;;0.90;0.22;;;8.20;99.90;;;;;;5088307;28;20437;-52
2023/03/15 11:59:25;;;;;;;0.50;0.20;;;8.20;99.90;;;;;;5092136;28;20475;-54
2023/03/15 12:01:56;;;;;;;1.10;0.20;;;8.20;99.90;;;;;;5088068;28;20584;-53
2023/03/15 12:04:43;;;;;;;1.25;0.30;;;8.10;99.90;;;;;;5090283;28;20453;-50
2023/03/15 12:07:31;;;;;;;0.50;0.20;;;8.20;99.90;;;;;;5089924;28;20444;-55
2023/03/15 12:10:20;;;;;;;0.80;0.20;;;8.40;99.90;;;;;;5085905;28;20433;-52
2023/03/15 12:12:58;;;;;;;0.80;0.30;;;8.60;99.90;;;;;;5092068;28;20425;-52
2023/03/15 12:15:50;;;;;;;1.45;0.50;;;8.60;99.90;;;;;;5087949;28;20508;-54
2023/03/15 12:18:32;;;;;;;1.20;0.85;;;8.70;99.90;;;;;;5073071;28;20796;-51
2023/03/15 12:21:12;;;;;;;9.75;5.95;;;8.80;99.90;;;;;;5092936;28;20437;-54
2023/03/15 12:23:44;;;;;;;0.80;0.20;;;8.90;99.90;;;;;;5088627;28;20425;-54
2023/03/15 12:26:24;;;;;;;0.60;0.20;;;8.90;99.90;;;;;;5072571;28;20416;-54
2023/03/15 12:29:02;;;;;;;0.60;0.20;;;9.00;99.90;;;;;;5081090;28;20429;-53
2023/03/15 12:31:45;;;;;;;1.00;0.20;;;9.30;99.90;;;;;;5089328;28;20456;-55
2023/03/15 12:34:15;;;;;;;0.45;0.20;;;8.90;99.90;;;;;;5087445;28;20421;-53
2023/03/15 12:36:47;;;;;;;0.50;0.20;;;8.90;99.90;;;;;;5089686;28;20416;-56
2023/03/15 12:39:35;;;;;;;0.50;0.20;;;8.80;99.90;;;;;;5088621;28;20539;-56
2023/03/15 12:42:04;;;;;;;1.60;0.20;;;9.10;99.90;;;;;;5091032;28;20429;-55
2023/03/15 12:44:40;;;;;;;0.50;0.20;;;9.40;99.90;;;;;;5088069;28;20436;-52
2023/03/15 12:47:09;;;;;;;0.60;0.30;;;9.10;99.90;;;;;;5070224;28;21035;-56
2023/03/15 12:49:39;;;;;;;0.70;0.20;;;9.20;99.90;;;;;;5078102;28;20880;-54
2023/03/15 12:52:26;;;;;;;0.50;0.20;;;9.40;99.90;;;;;;5092977;28;20541;-55
2023/03/15 12:55:01;;;;;;;0.50;0.30;;;9.50;99.90;;;;;;5091493;28;20488;-57
2023/03/15 12:57:30;;;;;;;0.70;0.30;;;9.40;99.90;;;;;;5092898;28;20529;-57
2023/03/15 13:00:00;;;;;;;0.73;0.20;;;9.30;99.90;;;;;;5091704;28;20516;-56
2023/03/15 13:02:33;;;;;;;1.20;0.20;;;9.10;99.90;;;;;;5090960;28;20525;-56
2023/03/15 13:05:16;;;;;;;0.50;0.20;;;8.90;99.90;;;;;;5088250;28;20438;-55
2023/03/15 13:07:57;;;;;;;0.70;0.40;;;8.80;99.90;;;;;;5080912;28;20439;-52
2023/03/15 13:10:39;;;;;;;0.95;0.30;;;8.70;99.90;;;;;;5086774;28;20430;-52